Time;durP1;ratioP1;P1;durP2;ratioP2;P2;SDS_P1;SDS_P2;PMS_P1;PMS_P2;Temp;Humidity;BMP_temperature;BMP_pressure;BME280_temperature;BME280_humidity;BME280_pressure;Samples;Min_cycle;Max_cycle;Signal;HPM_P1;HPM_P2
2024/01/10 07:30:24;;;;;;;9.97;7.33;;;2.80;99.90;;;;;;5119809;27;20700;-63
2024/01/10 07:32:52;;;;;;;7.97;5.87;;;3.40;99.90;;;;;;5105220;28;20958;-65
2024/01/10 07:35:21;;;;;;;20.57;13.83;;;3.10;99.90;;;;;;5098320;28;20234;-65
2024/01/10 07:37:49;;;;;;;13.70;9.93;;;3.20;99.90;;;;;;5095393;28;20184;-58
2024/01/10 07:40:18;;;;;;;7.73;6.90;;;3.30;99.90;;;;;;5086415;28;20207;-67
2024/01/10 07:42:46;;;;;;;7.70;6.90;;;3.30;99.90;;;;;;5086531;28;20731;-60
2024/01/10 07:45:15;;;;;;;7.60;6.73;;;3.40;99.90;;;;;;5086101;28;20249;-65
2024/01/10 07:47:46;;;;;;;9.20;6.23;;;3.50;99.90;;;;;;5085867;28;20210;-66
2024/01/10 07:50:15;;;;;;;6.67;5.83;;;3.40;99.90;;;;;;5086159;28;20728;-65
2024/01/10 07:52:45;;;;;;;8.87;6.43;;;3.40;99.90;;;;;;5086123;28;20204;-64
2024/01/10 07:55:15;;;;;;;8.73;7.37;;;3.50;99.90;;;;;;5085968;28;20203;-63
2024/01/10 07:57:46;;;;;;;9.60;6.73;;;3.50;99.90;;;;;;5086286;28;20257;-60
2024/01/10 08:00:16;;;;;;;9.13;7.27;;;3.40;99.90;;;;;;5085962;28;20196;-64
2024/01/10 08:02:45;;;;;;;8.43;7.23;;;3.30;99.90;;;;;;5085623;28;20254;-60
2024/01/10 08:05:14;;;;;;;7.13;6.00;;;3.40;99.90;;;;;;5085762;28;20206;-63
2024/01/10 08:07:42;;;;;;;7.97;6.73;;;3.30;99.90;;;;;;5080454;28;20196;-65
2024/01/10 08:10:11;;;;;;;13.10;9.17;;;3.40;99.90;;;;;;5106011;28;20220;-64
2024/01/10 08:12:41;;;;;;;12.47;9.67;;;3.30;99.90;;;;;;5105842;28;20232;-60
2024/01/10 08:15:10;;;;;;;15.40;10.00;;;3.30;99.90;;;;;;5105736;28;20204;-64
2024/01/10 08:17:38;;;;;;;9.73;8.00;;;3.30;99.90;;;;;;5106006;28;20198;-63
2024/01/10 08:20:10;;;;;;;10.80;9.30;;;3.40;99.90;;;;;;5105908;28;20195;-64
2024/01/10 08:22:40;;;;;;;9.50;6.47;;;3.50;99.90;;;;;;5105078;28;20206;-63
2024/01/10 08:25:09;;;;;;;13.10;8.07;;;3.40;99.90;;;;;;5092928;28;20213;-63
2024/01/10 08:27:37;;;;;;;10.63;7.13;;;3.30;99.90;;;;;;5085474;28;20203;-66
2024/01/10 08:30:09;;;;;;;15.80;10.03;;;3.30;99.90;;;;;;5084727;28;20714;-66
2024/01/10 08:32:38;;;;;;;8.43;7.60;;;3.50;99.90;;;;;;5084752;28;20792;-66
2024/01/10 08:35:09;;;;;;;9.10;6.73;;;3.40;99.90;;;;;;5085081;28;20196;-65
2024/01/10 08:37:40;;;;;;;6.90;6.20;;;3.30;99.90;;;;;;5085102;28;20208;-65
2024/01/10 08:40:11;;;;;;;7.00;6.20;;;3.20;99.90;;;;;;5080458;28;20280;-65
2024/01/10 08:42:40;;;;;;;7.77;6.47;;;3.20;99.90;;;;;;5053699;28;20213;-60
2024/01/10 08:45:11;;;;;;;7.37;6.03;;;3.20;99.90;;;;;;5071110;28;20202;-67
2024/01/10 08:47:39;;;;;;;7.63;6.77;;;3.30;99.90;;;;;;5071826;28;20250;-62
2024/01/10 08:50:10;;;;;;;8.87;7.17;;;3.40;99.90;;;;;;5071804;28;20280;-57
2024/01/10 08:52:38;;;;;;;14.33;10.67;;;3.20;99.90;;;;;;5071974;28;20193;-56
2024/01/10 08:55:07;;;;;;;8.53;6.73;;;3.20;99.90;;;;;;5071924;28;20200;-64
2024/01/10 08:57:39;;;;;;;7.97;7.17;;;3.20;99.90;;;;;;5052856;28;20610;-59
2024/01/10 09:00:11;;;;;;;10.13;7.77;;;3.20;99.90;;;;;;5070937;28;20287;-61
2024/01/10 09:02:40;;;;;;;10.57;7.33;;;3.20;99.90;;;;;;5071631;28;20224;-62
2024/01/10 09:05:10;;;;;;;8.77;7.90;;;3.20;99.90;;;;;;5071539;28;20207;-64
2024/01/10 09:07:39;;;;;;;11.03;8.20;;;3.40;99.90;;;;;;5071203;28;20273;-60
2024/01/10 09:10:08;;;;;;;10.67;9.43;;;3.30;99.90;;;;;;5070751;28;20338;-62
2024/01/10 09:12:37;;;;;;;10.13;7.63;;;3.50;99.90;;;;;;5070588;28;20684;-65
2024/01/10 09:15:08;;;;;;;8.87;7.40;;;3.60;99.90;;;;;;5070683;28;20199;-68
2024/01/10 09:17:35;;;;;;;10.23;7.63;;;3.60;99.90;;;;;;5070774;28;20203;-65
2024/01/10 09:20:04;;;;;;;9.90;8.40;;;3.60;99.90;;;;;;5071278;28;21010;-66
2024/01/10 09:22:34;;;;;;;10.67;7.53;;;3.50;99.90;;;;;;5071073;28;20204;-66
2024/01/10 09:25:04;;;;;;;10.30;8.10;;;3.50;99.90;;;;;;5070666;28;20250;-64
2024/01/10 09:27:33;;;;;;;9.80;8.40;;;3.50;99.90;;;;;;5070793;28;20197;-64
2024/01/10 09:30:02;;;;;;;10.43;8.63;;;3.50;99.90;;;;;;5069986;28;20299;-65
2024/01/10 09:32:31;;;;;;;15.20;10.10;;;3.40;99.90;;;;;;5070595;28;20601;-66
2024/01/10 09:35:00;;;;;;;11.20;9.27;;;3.50;99.90;;;;;;5070430;28;20217;-60
2024/01/10 09:37:28;;;;;;;11.07;8.97;;;3.40;99.90;;;;;;5070400;28;20620;-65
2024/01/10 09:39:58;;;;;;;10.97;8.40;;;3.40;99.90;;;;;;5070110;28;20224;-65
2024/01/10 09:42:27;;;;;;;9.23;8.07;;;3.40;99.90;;;;;;5070262;28;20194;-64
2024/01/10 09:44:56;;;;;;;14.10;9.17;;;3.40;99.90;;;;;;5070200;28;20210;-62
2024/01/10 09:47:25;;;;;;;12.27;9.57;;;3.50;99.90;;;;;;5070214;28;20209;-62
2024/01/10 09:49:53;;;;;;;24.63;16.77;;;3.50;99.90;;;;;;5070015;28;20229;-65
2024/01/10 09:52:26;;;;;;;25.10;15.30;;;3.50;99.90;;;;;;5069006;28;20306;-63
2024/01/10 09:54:56;;;;;;;12.23;9.00;;;3.60;99.90;;;;;;5069956;28;20207;-65
2024/01/10 09:57:26;;;;;;;9.47;7.87;;;3.60;99.90;;;;;;5069932;28;20207;-66
2024/01/10 09:59:55;;;;;;;11.87;9.17;;;3.60;99.90;;;;;;5069811;28;20237;-64
2024/01/10 10:02:24;;;;;;;11.97;8.53;;;3.50;99.90;;;;;;5069999;28;20204;-65
2024/01/10 10:05:00;;;;;;;11.40;8.07;;;3.50;99.90;;;;;;5069890;28;20279;-64
2024/01/10 10:07:28;;;;;;;9.03;7.87;;;3.40;99.90;;;;;;5069852;28;20234;-64
2024/01/10 10:09:57;;;;;;;13.17;9.77;;;3.50;99.90;;;;;;5069519;28;20315;-65
2024/01/10 10:12:43;;;;;;;12.13;9.43;;;3.50;99.90;;;;;;5069768;28;20969;-64
2024/01/10 10:15:14;;;;;;;13.17;8.97;;;3.50;99.90;;;;;;5069697;28;20634;-64
2024/01/10 10:17:47;;;;;;;13.03;8.73;;;3.60;99.90;;;;;;5069831;28;20197;-65
2024/01/10 10:20:20;;;;;;;8.33;7.47;;;3.70;99.90;;;;;;5069698;28;20571;-62
2024/01/10 10:23:00;;;;;;;9.27;7.40;;;3.60;99.90;;;;;;5069497;28;20204;-65
2024/01/10 10:25:31;;;;;;;11.33;7.73;;;3.50;99.90;;;;;;5069471;28;20213;-64
2024/01/10 10:28:02;;;;;;;7.17;6.43;;;3.60;99.90;;;;;;5069171;28;20271;-65
2024/01/10 10:30:32;;;;;;;12.37;7.13;;;3.40;99.90;;;;;;5069111;28;20278;-62
2024/01/10 10:33:00;;;;;;;11.77;7.73;;;3.40;99.90;;;;;;5069466;28;20199;-56
2024/01/10 10:35:29;;;;;;;8.17;6.70;;;3.40;99.90;;;;;;5069185;28;20203;-64
2024/01/10 10:38:03;;;;;;;11.07;8.03;;;3.50;99.90;;;;;;5069382;28;20249;-63
2024/01/10 10:40:32;;;;;;;10.43;8.10;;;3.50;99.90;;;;;;5069568;28;20197;-64
2024/01/10 10:43:05;;;;;;;13.20;9.27;;;3.50;99.90;;;;;;5069362;28;20189;-63
2024/01/10 10:45:35;;;;;;;9.77;7.20;;;3.40;99.90;;;;;;5069233;28;20747;-64
2024/01/10 10:48:05;;;;;;;10.63;8.10;;;3.40;99.90;;;;;;5069339;28;20197;-65
2024/01/10 10:50:36;;;;;;;32.00;18.23;;;3.50;99.90;;;;;;5068843;28;20303;-60
2024/01/10 10:53:05;;;;;;;13.43;8.53;;;3.60;99.90;;;;;;5069073;28;20201;-64
2024/01/10 10:55:35;;;;;;;9.90;8.30;;;3.70;99.90;;;;;;5068859;28;20579;-62
2024/01/10 10:58:06;;;;;;;12.17;8.33;;;3.70;99.90;;;;;;5068949;28;20200;-63
2024/01/10 11:00:39;;;;;;;8.83;7.80;;;3.70;99.90;;;;;;5068597;28;21000;-64
2024/01/10 11:03:11;;;;;;;9.30;7.93;;;3.70;99.90;;;;;;5068743;28;20203;-58
2024/01/10 11:05:41;;;;;;;11.93;8.07;;;3.80;99.90;;;;;;5068834;28;20209;-64
2024/01/10 11:08:14;;;;;;;12.03;8.43;;;3.70;99.90;;;;;;5068799;28;20682;-65
2024/01/10 11:10:44;;;;;;;10.03;7.80;;;3.80;99.90;;;;;;5068531;28;20221;-65
2024/01/10 11:13:28;;;;;;;10.60;7.20;;;3.70;99.90;;;;;;5068918;28;20598;-66
2024/01/10 11:16:36;;;;;;;13.17;8.33;;;3.60;99.90;;;;;;5068335;28;20658;-64
2024/01/10 11:19:27;;;;;;;9.93;8.30;;;3.60;99.90;;;;;;5065320;28;20209;-63
2024/01/10 11:22:09;;;;;;;12.43;9.50;;;3.70;99.90;;;;;;5068548;28;20206;-62
2024/01/10 11:24:38;;;;;;;12.07;8.13;;;3.70;99.90;;;;;;5068582;28;20196;-64
2024/01/10 11:27:13;;;;;;;10.30;7.47;;;3.70;99.90;;;;;;5068674;28;20563;-63
2024/01/10 11:29:46;;;;;;;13.03;8.27;;;3.70;99.90;;;;;;5068545;28;20223;-61
2024/01/10 11:32:17;;;;;;;12.83;8.50;;;3.60;99.90;;;;;;4986407;28;20631;-63
2024/01/10 11:34:56;;;;;;;11.07;7.67;;;3.60;99.90;;;;;;4986697;28;20233;-64
2024/01/10 11:37:28;;;;;;;10.40;7.30;;;3.60;99.90;;;;;;4986617;28;20208;-66
2024/01/10 11:39:57;;;;;;;11.10;8.33;;;3.50;99.90;;;;;;4986366;28;20212;-65
2024/01/10 11:42:41;;;;;;;11.13;8.33;;;3.50;99.90;;;;;;4986705;28;20272;-64
2024/01/10 11:45:17;;;;;;;10.90;8.00;;;3.70;99.90;;;;;;4986598;28;20207;-64
2024/01/10 11:47:45;;;;;;;11.87;9.37;;;3.80;99.90;;;;;;4986630;28;21090;-64
2024/01/10 11:50:20;;;;;;;10.47;8.50;;;3.70;99.90;;;;;;5018902;28;20278;-65
2024/01/10 11:52:53;;;;;;;10.83;8.73;;;3.70;99.90;;;;;;5068226;28;20207;-64
2024/01/10 11:55:49;;;;;;;11.43;8.87;;;3.60;99.90;;;;;;5068303;28;20229;-64
2024/01/10 11:58:18;;;;;;;11.60;8.53;;;3.80;99.90;;;;;;5068240;28;20223;-62
2024/01/10 12:00:49;;;;;;;18.50;11.03;;;3.90;99.90;;;;;;5067871;28;20992;-62
2024/01/10 12:03:18;;;;;;;11.97;8.33;;;4.00;99.90;;;;;;5068214;28;20659;-64
2024/01/10 12:05:47;;;;;;;12.37;7.90;;;4.00;99.90;;;;;;5068176;28;20236;-64
2024/01/10 12:08:15;;;;;;;9.30;7.37;;;4.00;99.90;;;;;;5068159;28;20196;-62
2024/01/10 12:10:49;;;;;;;8.90;7.53;;;3.90;99.90;;;;;;5067917;28;20244;-64
2024/01/10 12:13:18;;;;;;;7.33;6.50;;;3.90;99.90;;;;;;5068270;28;20204;-65
2024/01/10 12:15:48;;;;;;;7.97;6.73;;;3.80;99.90;;;;;;5069809;28;20204;-62
2024/01/10 12:18:16;;;;;;;8.53;6.90;;;3.80;99.90;;;;;;5072203;28;20226;-64
2024/01/10 12:20:45;;;;;;;11.73;8.27;;;3.70;99.90;;;;;;5071938;28;20206;-63
2024/01/10 12:23:13;;;;;;;11.67;7.60;;;3.60;99.90;;;;;;5071887;28;20207;-65
2024/01/10 12:25:41;;;;;;;10.53;7.40;;;3.70;99.90;;;;;;5071777;28;20941;-64
2024/01/10 12:28:10;;;;;;;8.40;7.23;;;3.70;99.90;;;;;;5075310;28;20226;-62
2024/01/10 12:30:38;;;;;;;8.83;7.43;;;3.70;99.90;;;;;;5092148;28;20220;-64
2024/01/10 12:33:10;;;;;;;7.97;7.17;;;3.70;99.90;;;;;;5092308;28;20289;-66
2024/01/10 12:35:42;;;;;;;11.17;7.87;;;3.70;99.90;;;;;;5090659;28;20207;-64
2024/01/10 12:38:11;;;;;;;10.67;8.23;;;3.80;99.90;;;;;;5068262;28;20201;-65
2024/01/10 12:40:40;;;;;;;9.77;8.00;;;3.80;99.90;;;;;;5071195;28;20200;-64
2024/01/10 12:43:10;;;;;;;12.10;9.13;;;3.80;99.90;;;;;;5071308;28;20231;-66
2024/01/10 12:45:38;;;;;;;14.83;9.93;;;3.70;99.90;;;;;;5071628;28;20258;-64
2024/01/10 12:48:17;;;;;;;13.13;9.37;;;3.80;99.90;;;;;;5071628;28;20207;-64
2024/01/10 12:50:45;;;;;;;12.70;8.80;;;3.90;99.90;;;;;;5071634;28;20193;-60
2024/01/10 12:53:13;;;;;;;10.60;8.47;;;3.90;99.90;;;;;;5071632;28;20201;-64
2024/01/10 12:55:42;;;;;;;11.40;8.60;;;3.80;99.90;;;;;;5071520;28;20272;-65
2024/01/10 12:58:10;;;;;;;13.87;9.73;;;3.90;99.90;;;;;;5071011;28;20193;-65
2024/01/10 13:00:39;;;;;;;14.93;10.77;;;3.80;99.90;;;;;;5071208;28;20690;-65
2024/01/10 13:03:09;;;;;;;17.53;11.17;;;3.80;99.90;;;;;;5071480;28;20201;-64
2024/01/10 13:05:38;;;;;;;18.43;12.83;;;3.80;99.90;;;;;;5072285;28;20788;-65
2024/01/10 13:08:07;;;;;;;16.70;11.63;;;3.70;99.90;;;;;;5073208;28;20207;-64
2024/01/10 13:10:35;;;;;;;16.57;11.63;;;3.70;99.90;;;;;;5091281;28;20195;-61
2024/01/10 13:13:04;;;;;;;16.40;11.60;;;3.70;99.90;;;;;;5090934;28;20273;-58
2024/01/10 13:15:33;;;;;;;18.47;11.77;;;3.70;99.90;;;;;;5091452;28;20194;-62
2024/01/10 13:18:01;;;;;;;17.20;12.07;;;3.70;99.90;;;;;;5091251;28;20242;-64
2024/01/10 13:20:31;;;;;;;14.83;11.50;;;3.70;99.90;;;;;;5091459;28;20199;-64
2024/01/10 13:22:59;;;;;;;17.23;12.00;;;3.60;99.90;;;;;;5072944;28;20204;-64
2024/01/10 13:25:27;;;;;;;36.57;21.30;;;3.70;99.90;;;;;;5091064;28;20201;-61
2024/01/10 13:27:57;;;;;;;21.77;15.00;;;3.70;99.90;;;;;;5090671;28;20205;-58
2024/01/10 13:30:26;;;;;;;16.87;12.10;;;3.70;99.90;;;;;;5091046;28;20737;-60
2024/01/10 13:32:54;;;;;;;17.80;11.60;;;3.60;99.90;;;;;;5090808;28;20594;-62
2024/01/10 13:35:23;;;;;;;17.60;12.23;;;3.60;99.90;;;;;;5090988;28;20205;-64
2024/01/10 13:37:53;;;;;;;18.63;13.03;;;3.50;99.90;;;;;;5090908;28;20207;-61
2024/01/10 13:40:24;;;;;;;14.43;10.97;;;3.60;99.90;;;;;;5090329;28;20223;-62
2024/01/10 13:42:52;;;;;;;14.47;10.77;;;3.60;99.90;;;;;;5090888;28;20560;-62
2024/01/10 13:45:21;;;;;;;15.63;11.87;;;3.50;99.90;;;;;;5090886;28;20204;-61
2024/01/10 13:47:49;;;;;;;17.00;12.33;;;3.70;99.90;;;;;;5090306;28;20618;-60
2024/01/10 13:50:18;;;;;;;14.77;11.40;;;3.70;99.90;;;;;;5090815;28;20201;-59
2024/01/10 13:52:46;;;;;;;16.27;11.97;;;3.80;99.90;;;;;;5090680;28;20756;-57
2024/01/10 13:55:16;;;;;;;17.50;13.00;;;3.70;99.90;;;;;;5090288;28;20201;-64
2024/01/10 13:57:45;;;;;;;16.90;11.70;;;3.70;99.90;;;;;;5090623;28;20200;-64
2024/01/10 14:00:14;;;;;;;13.53;10.73;;;3.80;99.90;;;;;;5090579;28;20249;-60
2024/01/10 14:02:43;;;;;;;15.37;11.37;;;3.70;99.90;;;;;;5090110;28;20611;-61
2024/01/10 14:05:11;;;;;;;14.97;11.70;;;3.50;99.90;;;;;;5090666;28;20206;-63
2024/01/10 14:07:43;;;;;;;18.83;11.60;;;3.50;99.90;;;;;;5088132;28;20197;-66
2024/01/10 14:10:12;;;;;;;17.20;12.50;;;3.60;99.90;;;;;;5069385;28;20201;-61
2024/01/10 14:12:43;;;;;;;20.37;12.40;;;3.60;99.90;;;;;;5069944;28;20233;-61
2024/01/10 14:15:12;;;;;;;15.53;11.77;;;3.60;99.90;;;;;;5069989;28;20196;-63
2024/01/10 14:17:41;;;;;;;19.70;12.57;;;3.40;99.90;;;;;;5070137;28;20733;-59
2024/01/10 14:20:09;;;;;;;19.27;12.57;;;3.40;99.90;;;;;;5069746;28;20396;-64
2024/01/10 14:22:38;;;;;;;16.03;12.17;;;3.40;99.90;;;;;;5069933;28;20209;-62
2024/01/10 14:25:09;;;;;;;17.40;13.03;;;3.50;99.90;;;;;;5079063;28;20196;-66
2024/01/10 14:27:38;;;;;;;28.10;16.03;;;3.50;99.90;;;;;;5089593;28;20228;-67
2024/01/10 14:30:09;;;;;;;21.33;13.13;;;3.40;99.90;;;;;;5089354;28;20227;-67
2024/01/10 14:32:38;;;;;;;21.03;14.27;;;3.40;99.90;;;;;;5089279;28;20698;-67
2024/01/10 14:35:09;;;;;;;22.10;15.23;;;3.50;99.90;;;;;;5089352;28;20672;-64
2024/01/10 14:37:37;;;;;;;21.10;14.73;;;3.40;99.90;;;;;;5089090;28;20730;-65
2024/01/10 14:40:07;;;;;;;25.97;15.13;;;3.40;99.90;;;;;;5089057;28;20195;-67
2024/01/10 14:42:35;;;;;;;22.33;15.70;;;3.40;99.90;;;;;;5089328;28;20200;-64
2024/01/10 14:45:04;;;;;;;23.93;15.33;;;3.30;99.90;;;;;;5089321;28;20200;-66
2024/01/10 14:47:35;;;;;;;26.47;16.63;;;3.30;99.90;;;;;;5089013;28;20250;-66
2024/01/10 14:50:04;;;;;;;23.73;16.63;;;3.40;99.90;;;;;;5089161;28;20613;-67
2024/01/10 14:52:33;;;;;;;27.40;15.93;;;3.40;99.90;;;;;;5088920;28;20318;-67
2024/01/10 14:55:03;;;;;;;23.33;16.27;;;3.40;99.90;;;;;;5088940;28;20601;-66
2024/01/10 14:57:32;;;;;;;27.77;17.80;;;3.30;99.90;;;;;;5088727;28;20201;-67
2024/01/10 15:00:01;;;;;;;24.60;16.30;;;3.30;99.90;;;;;;5088504;28;20347;-65
2024/01/10 15:02:30;;;;;;;23.67;16.00;;;3.40;99.90;;;;;;5088034;28;20325;-65
2024/01/10 15:05:00;;;;;;;22.70;16.30;;;3.40;99.90;;;;;;5088122;28;20195;-66
2024/01/10 15:07:28;;;;;;;21.57;14.97;;;3.10;99.90;;;;;;5088173;28;20195;-66
2024/01/10 15:09:58;;;;;;;22.83;14.53;;;3.20;99.90;;;;;;5087885;28;20238;-64
2024/01/10 15:12:27;;;;;;;24.93;15.97;;;3.10;99.90;;;;;;5088158;28;20216;-67
2024/01/10 15:14:59;;;;;;;25.73;16.23;;;3.20;99.90;;;;;;5088249;28;20196;-65
2024/01/10 15:17:28;;;;;;;28.30;16.63;;;3.20;99.90;;;;;;5087834;28;20293;-67
2024/01/10 15:19:56;;;;;;;23.97;16.43;;;3.20;99.90;;;;;;5088136;28;20216;-63
2024/01/10 15:22:27;;;;;;;28.10;15.33;;;3.20;99.90;;;;;;5087922;28;20736;-64
2024/01/10 15:24:55;;;;;;;26.27;16.87;;;3.20;99.90;;;;;;5080818;28;20188;-65
2024/01/10 15:27:23;;;;;;;24.63;16.70;;;3.30;99.90;;;;;;5070867;28;20193;-65
2024/01/10 15:29:52;;;;;;;28.13;18.23;;;3.20;99.90;;;;;;5067556;28;20235;-65
2024/01/10 15:32:24;;;;;;;26.07;15.20;;;3.30;99.90;;;;;;5067762;28;20288;-65
2024/01/10 15:34:52;;;;;;;28.27;16.47;;;3.10;99.90;;;;;;5067822;28;20201;-65
2024/01/10 15:37:20;;;;;;;24.43;15.73;;;3.20;99.90;;;;;;5067691;28;20914;-65
2024/01/10 15:39:50;;;;;;;30.47;17.47;;;3.00;99.90;;;;;;5067636;28;20197;-66
2024/01/10 15:42:20;;;;;;;28.67;18.67;;;2.90;99.90;;;;;;5067526;28;20209;-64
2024/01/10 15:44:49;;;;;;;29.50;18.27;;;3.00;99.90;;;;;;5067401;28;20201;-66
2024/01/10 15:47:17;;;;;;;24.97;17.60;;;3.10;99.90;;;;;;5067398;28;20212;-64
2024/01/10 15:49:46;;;;;;;27.83;18.33;;;3.20;99.90;;;;;;5067711;28;20749;-65
2024/01/10 15:52:14;;;;;;;28.33;18.97;;;3.10;99.90;;;;;;5071525;28;20284;-67
2024/01/10 15:54:44;;;;;;;27.60;18.07;;;3.10;99.90;;;;;;5084560;28;20230;-65
2024/01/10 15:57:13;;;;;;;26.43;17.90;;;2.90;99.90;;;;;;5072366;28;20204;-65
2024/01/10 15:59:42;;;;;;;25.53;18.07;;;2.90;99.90;;;;;;5072091;28;20816;-66
2024/01/10 16:02:10;;;;;;;29.20;18.23;;;2.80;99.90;;;;;;5072558;28;20196;-64
2024/01/10 16:04:38;;;;;;;28.87;18.47;;;2.90;99.90;;;;;;5071832;28;20241;-66
2024/01/10 16:07:08;;;;;;;27.73;17.37;;;2.90;99.90;;;;;;5071293;28;20678;-67
2024/01/10 16:09:37;;;;;;;29.13;18.70;;;3.00;99.90;;;;;;5071577;28;20201;-65
2024/01/10 16:12:06;;;;;;;27.63;18.60;;;3.00;99.90;;;;;;5071721;28;20201;-65
2024/01/10 16:14:36;;;;;;;26.47;17.53;;;3.00;99.90;;;;;;5071577;28;20228;-63
2024/01/10 16:17:04;;;;;;;30.23;17.93;;;3.00;99.90;;;;;;5071636;28;20270;-64
2024/01/10 16:19:33;;;;;;;30.00;19.13;;;2.90;99.90;;;;;;5071517;28;20261;-67
2024/01/10 16:22:01;;;;;;;31.63;17.97;;;2.80;99.90;;;;;;5070951;28;20203;-64
2024/01/10 16:24:29;;;;;;;37.93;19.97;;;2.90;99.90;;;;;;5071200;28;20212;-66
2024/01/10 16:26:58;;;;;;;29.57;19.33;;;2.90;99.90;;;;;;5071302;28;20277;-65
2024/01/10 16:29:26;;;;;;;29.53;19.47;;;2.90;99.90;;;;;;5071305;28;20277;-64
2024/01/10 16:31:56;;;;;;;34.93;19.80;;;2.90;99.90;;;;;;5071147;28;20205;-66
2024/01/10 16:34:24;;;;;;;30.77;19.97;;;3.00;99.90;;;;;;5070932;28;20268;-66
2024/01/10 16:36:55;;;;;;;31.90;18.57;;;3.00;99.90;;;;;;5070415;28;20197;-65
2024/01/10 16:39:24;;;;;;;27.70;18.63;;;2.80;99.90;;;;;;5069630;28;20195;-65
2024/01/10 16:41:52;;;;;;;29.10;19.00;;;2.90;99.90;;;;;;5069919;28;20626;-64
2024/01/10 16:44:20;;;;;;;30.97;20.13;;;2.90;99.90;;;;;;5070738;28;20258;-66
2024/01/10 16:46:49;;;;;;;30.90;20.70;;;2.90;99.90;;;;;;5070816;28;20209;-66
2024/01/10 16:49:18;;;;;;;33.83;19.43;;;2.90;99.90;;;;;;5070957;28;20204;-64
2024/01/10 16:51:47;;;;;;;31.80;20.27;;;2.90;99.90;;;;;;5070927;28;20197;-63
2024/01/10 16:54:15;;;;;;;27.53;18.67;;;2.80;99.90;;;;;;5069930;28;20226;-65
2024/01/10 16:56:44;;;;;;;30.37;19.90;;;2.80;99.90;;;;;;5051363;28;20680;-66
2024/01/10 16:59:12;;;;;;;27.23;19.90;;;2.80;99.90;;;;;;5071031;28;20201;-64
2024/01/10 17:01:41;;;;;;;28.83;18.97;;;2.80;99.90;;;;;;5070942;28;20213;-64
2024/01/10 17:04:09;;;;;;;27.10;18.97;;;2.90;99.90;;;;;;5071014;28;20204;-62
2024/01/10 17:06:39;;;;;;;31.97;18.97;;;2.90;99.90;;;;;;5070852;28;20763;-65
2024/01/10 17:09:07;;;;;;;33.97;21.73;;;2.90;99.90;;;;;;5070436;28;21000;-67
2024/01/10 17:11:39;;;;;;;28.93;19.67;;;2.80;99.90;;;;;;5070852;28;20203;-67
2024/01/10 17:14:09;;;;;;;26.37;17.23;;;2.80;99.90;;;;;;5070493;28;20225;-64
2024/01/10 17:16:37;;;;;;;32.90;19.83;;;2.90;99.90;;;;;;5070432;28;20197;-65
2024/01/10 17:19:05;;;;;;;30.30;19.17;;;2.90;99.90;;;;;;5070284;28;20196;-67
2024/01/10 17:21:34;;;;;;;27.87;18.33;;;2.90;99.90;;;;;;5070437;28;20194;-65
2024/01/10 17:24:03;;;;;;;27.90;19.17;;;2.80;99.90;;;;;;5069540;28;20204;-64
2024/01/10 17:26:32;;;;;;;29.70;20.70;;;2.80;99.90;;;;;;5069886;28;20211;-67
2024/01/10 17:29:00;;;;;;;30.33;18.27;;;2.80;99.90;;;;;;5069988;28;20228;-66
2024/01/10 17:31:29;;;;;;;30.17;18.93;;;2.80;99.90;;;;;;5070027;28;20199;-66
2024/01/10 17:33:57;;;;;;;29.17;18.83;;;2.90;99.90;;;;;;5069839;28;20221;-63
2024/01/10 17:36:26;;;;;;;31.33;18.77;;;2.90;99.90;;;;;;5070396;28;20192;-61
2024/01/10 17:38:55;;;;;;;37.20;21.30;;;2.80;99.90;;;;;;5069421;28;20197;-65
2024/01/10 17:41:24;;;;;;;32.90;18.70;;;2.70;99.90;;;;;;5070063;28;20185;-66
2024/01/10 17:43:53;;;;;;;32.60;20.43;;;2.60;99.90;;;;;;5069960;28;20295;-64
2024/01/10 17:46:21;;;;;;;35.43;19.87;;;2.60;99.90;;;;;;5069933;28;20379;-63
2024/01/10 17:48:51;;;;;;;34.30;20.33;;;2.60;99.90;;;;;;5069772;28;20206;-66
2024/01/10 17:51:21;;;;;;;33.10;19.63;;;2.60;99.90;;;;;;5090049;28;20677;-67
2024/01/10 17:53:49;;;;;;;31.93;20.53;;;2.60;99.90;;;;;;5089426;28;20313;-63
2024/01/10 17:56:18;;;;;;;31.50;19.17;;;2.60;99.90;;;;;;5089820;28;20203;-65
2024/01/10 17:58:47;;;;;;;33.20;21.47;;;2.60;99.90;;;;;;5089917;28;20195;-63
2024/01/10 18:01:17;;;;;;;35.13;22.20;;;2.70;99.90;;;;;;5089723;28;20295;-66
2024/01/10 18:03:49;;;;;;;35.90;21.63;;;2.70;99.90;;;;;;5086596;28;20226;-65
2024/01/10 18:06:22;;;;;;;33.50;20.87;;;2.70;99.90;;;;;;5069340;28;20239;-64
2024/01/10 18:08:50;;;;;;;28.53;18.73;;;2.60;99.90;;;;;;5068667;28;20978;-67
2024/01/10 18:11:18;;;;;;;47.67;23.30;;;2.60;99.90;;;;;;5069477;28;20880;-66
2024/01/10 18:13:48;;;;;;;29.07;19.20;;;2.50;99.90;;;;;;5068398;28;20190;-66
2024/01/10 18:16:16;;;;;;;30.17;18.43;;;2.40;99.90;;;;;;5069129;28;20690;-62
2024/01/10 18:18:45;;;;;;;34.90;21.00;;;2.30;99.90;;;;;;5069130;28;20203;-68
2024/01/10 18:21:14;;;;;;;34.27;20.43;;;2.40;99.90;;;;;;5069287;28;20193;-66
2024/01/10 18:23:43;;;;;;;29.23;18.37;;;2.50;99.90;;;;;;5068777;28;20195;-62
2024/01/10 18:26:12;;;;;;;29.63;19.10;;;2.50;99.90;;;;;;5069029;28;20739;-64
2024/01/10 18:28:41;;;;;;;31.57;19.77;;;2.50;99.90;;;;;;5069114;28;20253;-68
2024/01/10 18:31:10;;;;;;;29.87;17.87;;;2.40;99.90;;;;;;5069355;28;20197;-67
2024/01/10 18:33:39;;;;;;;31.30;20.13;;;2.30;99.90;;;;;;5068759;28;20196;-64
2024/01/10 18:36:08;;;;;;;35.63;20.73;;;2.30;99.90;;;;;;5068532;28;20227;-66
2024/01/10 18:38:36;;;;;;;32.33;19.40;;;2.30;99.90;;;;;;5068823;28;20258;-65
2024/01/10 18:41:05;;;;;;;33.27;19.07;;;2.40;99.90;;;;;;5068889;28;20195;-63
2024/01/10 18:43:33;;;;;;;29.87;20.00;;;2.30;99.90;;;;;;5069273;28;20176;-65
2024/01/10 18:46:01;;;;;;;32.93;18.37;;;2.30;99.90;;;;;;5068477;28;20227;-65
2024/01/10 18:48:31;;;;;;;29.17;18.53;;;2.50;99.90;;;;;;5068970;28;20195;-66
2024/01/10 18:51:00;;;;;;;31.73;18.77;;;2.50;99.90;;;;;;5068605;28;20219;-67
2024/01/10 18:53:28;;;;;;;33.30;19.10;;;2.50;99.90;;;;;;5067989;28;20209;-65
2024/01/10 18:55:57;;;;;;;33.03;18.50;;;2.60;99.90;;;;;;5087832;28;20231;-67
2024/01/10 18:58:25;;;;;;;36.47;19.77;;;2.50;99.90;;;;;;5088917;28;20233;-65
2024/01/10 19:00:54;;;;;;;33.17;21.03;;;2.50;99.90;;;;;;5089155;28;20206;-65
2024/01/10 19:03:22;;;;;;;28.43;18.60;;;2.60;99.90;;;;;;5088858;28;20237;-63
2024/01/10 19:05:52;;;;;;;31.03;18.73;;;2.50;99.90;;;;;;5081254;28;20207;-66
2024/01/10 19:08:21;;;;;;;30.37;20.93;;;2.50;99.90;;;;;;5068032;28;20198;-65
2024/01/10 19:10:49;;;;;;;30.50;18.60;;;2.40;99.90;;;;;;5068588;28;20215;-62
2024/01/10 19:13:18;;;;;;;32.20;19.93;;;2.40;99.90;;;;;;5068485;28;20197;-66
2024/01/10 19:15:47;;;;;;;32.87;20.13;;;2.30;99.90;;;;;;5050141;28;20217;-66
2024/01/10 19:18:15;;;;;;;35.43;19.93;;;2.50;99.90;;;;;;5068345;28;20208;-65
2024/01/10 19:20:44;;;;;;;36.83;21.00;;;2.50;99.90;;;;;;5068573;28;20944;-64
2024/01/10 19:23:14;;;;;;;32.77;19.97;;;2.50;99.90;;;;;;5067842;28;20207;-62
2024/01/10 19:25:42;;;;;;;37.07;21.83;;;2.60;99.90;;;;;;5068196;28;20654;-63
2024/01/10 19:28:11;;;;;;;34.63;19.60;;;2.80;99.90;;;;;;5068112;28;20190;-64
2024/01/10 19:30:39;;;;;;;37.37;19.67;;;2.70;99.90;;;;;;5068477;28;20205;-61
2024/01/10 19:33:08;;;;;;;34.20;19.70;;;2.60;99.90;;;;;;5068251;28;20285;-67
2024/01/10 19:35:36;;;;;;;35.43;19.37;;;2.60;99.90;;;;;;5068200;28;20223;-64
2024/01/10 19:38:05;;;;;;;31.93;19.47;;;2.60;99.90;;;;;;5067775;28;20641;-64
2024/01/10 19:40:38;;;;;;;31.40;18.33;;;2.60;99.90;;;;;;5067447;28;20251;-64
2024/01/10 19:43:08;;;;;;;46.83;27.00;;;2.60;99.90;;;;;;5067476;28;20210;-64
2024/01/10 19:45:37;;;;;;;30.67;20.53;;;2.70;99.90;;;;;;5067691;28;20205;-63
2024/01/10 19:48:06;;;;;;;35.03;18.93;;;2.50;99.90;;;;;;5067269;28;20605;-59
2024/01/10 19:50:34;;;;;;;33.47;19.80;;;2.50;99.90;;;;;;5067288;28;20292;-67
2024/01/10 19:53:03;;;;;;;35.17;20.73;;;2.60;99.90;;;;;;5067400;28;20572;-63
2024/01/10 19:55:32;;;;;;;33.97;20.00;;;2.70;99.90;;;;;;5067064;28;20227;-66
2024/01/10 19:58:02;;;;;;;35.03;19.03;;;2.60;99.90;;;;;;5067334;28;20190;-65
2024/01/10 20:00:32;;;;;;;30.00;19.53;;;2.70;99.90;;;;;;5067413;28;20224;-65
2024/01/10 20:03:00;;;;;;;36.33;19.97;;;2.70;99.90;;;;;;5067312;28;20311;-65
2024/01/10 20:05:29;;;;;;;33.90;18.63;;;2.70;99.90;;;;;;5066785;28;20190;-67
2024/01/10 20:07:57;;;;;;;33.13;19.57;;;2.70;99.90;;;;;;5067194;28;20222;-58
2024/01/10 20:10:26;;;;;;;29.47;17.87;;;2.70;99.90;;;;;;5067300;28;20736;-63
2024/01/10 20:12:54;;;;;;;31.40;19.60;;;2.70;99.90;;;;;;5067550;28;20196;-60
2024/01/10 20:15:24;;;;;;;32.17;19.93;;;2.80;99.90;;;;;;5067524;28;20545;-67
2024/01/10 20:17:52;;;;;;;29.37;18.80;;;2.90;99.90;;;;;;5067392;28;20208;-65
2024/01/10 20:20:21;;;;;;;33.07;19.27;;;2.90;99.90;;;;;;5067310;28;20294;-65
2024/01/10 20:22:49;;;;;;;32.83;18.53;;;2.80;99.90;;;;;;5067382;28;20330;-64
2024/01/10 20:25:21;;;;;;;32.37;19.13;;;2.80;99.90;;;;;;5067370;28;20747;-65